sensor_id;sensor_type;location;lat;lon;timestamp;temperature;humidity
21950;DHT22;11139;51.284;7.226;2023-02-28T00:00:24;3.40;99.90
21950;DHT22;11139;51.284;7.226;2023-02-28T00:02:49;3.40;99.90
21950;DHT22;11139;51.284;7.226;2023-02-28T00:05:16;3.40;99.90
21950;DHT22;11139;51.284;7.226;2023-02-28T00:07:43;3.40;99.90
21950;DHT22;11139;51.284;7.226;2023-02-28T00:10:13;3.40;99.90
21950;DHT22;11139;51.284;7.226;2023-02-28T00:12:38;3.30;99.90
21950;DHT22;11139;51.284;7.226;2023-02-28T00:15:10;3.40;99.90
21950;DHT22;11139;51.284;7.226;2023-02-28T00:17:37;3.40;99.90
21950;DHT22;11139;51.284;7.226;2023-02-28T00:20:03;3.40;99.90
21950;DHT22;11139;51.284;7.226;2023-02-28T00:22:29;3.30;99.90
21950;DHT22;11139;51.284;7.226;2023-02-28T00:24:55;3.30;99.90
21950;DHT22;11139;51.284;7.226;2023-02-28T00:27:20;3.40;99.90
21950;DHT22;11139;51.284;7.226;2023-02-28T00:29:46;3.30;99.90
21950;DHT22;11139;51.284;7.226;2023-02-28T00:32:12;3.40;99.90
21950;DHT22;11139;51.284;7.226;2023-02-28T00:34:37;3.40;99.90
21950;DHT22;11139;51.284;7.226;2023-02-28T00:37:04;3.40;99.90
21950;DHT22;11139;51.284;7.226;2023-02-28T00:39:29;3.30;99.90
21950;DHT22;11139;51.284;7.226;2023-02-28T00:41:55;3.30;99.90
21950;DHT22;11139;51.284;7.226;2023-02-28T00:44:20;3.40;99.90
21950;DHT22;11139;51.284;7.226;2023-02-28T00:46:46;3.30;99.90
21950;DHT22;11139;51.284;7.226;2023-02-28T00:49:12;3.30;99.90
21950;DHT22;11139;51.284;7.226;2023-02-28T00:51:37;3.30;99.90
21950;DHT22;11139;51.284;7.226;2023-02-28T00:54:03;3.30;99.90
21950;DHT22;11139;51.284;7.226;2023-02-28T00:56:28;3.30;99.90
21950;DHT22;11139;51.284;7.226;2023-02-28T00:58:54;3.30;99.90
21950;DHT22;11139;51.284;7.226;2023-02-28T01:01:19;3.30;99.90
21950;DHT22;11139;51.284;7.226;2023-02-28T01:03:45;3.30;99.90
21950;DHT22;11139;51.284;7.226;2023-02-28T01:06:10;3.30;99.90
21950;DHT22;11139;51.284;7.226;2023-02-28T01:08:36;3.30;99.90
21950;DHT22;11139;51.284;7.226;2023-02-28T01:11:07;3.30;99.90
21950;DHT22;11139;51.284;7.226;2023-02-28T01:13:32;3.20;99.90
21950;DHT22;11139;51.284;7.226;2023-02-28T01:15:58;3.30;99.90
21950;DHT22;11139;51.284;7.226;2023-02-28T01:18:24;3.20;99.90
21950;DHT22;11139;51.284;7.226;2023-02-28T01:20:49;3.30;99.90
21950;DHT22;11139;51.284;7.226;2023-02-28T01:23:18;3.30;99.90
21950;DHT22;11139;51.284;7.226;2023-02-28T01:25:44;3.30;99.90
21950;DHT22;11139;51.284;7.226;2023-02-28T01:28:09;3.20;99.90
21950;DHT22;11139;51.284;7.226;2023-02-28T01:30:35;3.30;99.90
21950;DHT22;11139;51.284;7.226;2023-02-28T01:33:00;3.20;99.90
21950;DHT22;11139;51.284;7.226;2023-02-28T01:35:26;3.20;99.90
21950;DHT22;11139;51.284;7.226;2023-02-28T01:37:51;3.20;99.90
21950;DHT22;11139;51.284;7.226;2023-02-28T01:40:17;3.20;99.90
21950;DHT22;11139;51.284;7.226;2023-02-28T01:42:42;3.20;99.90
21950;DHT22;11139;51.284;7.226;2023-02-28T01:45:30;3.20;99.90
21950;DHT22;11139;51.284;7.226;2023-02-28T01:47:55;3.20;99.90
21950;DHT22;11139;51.284;7.226;2023-02-28T01:50:23;3.20;99.90
21950;DHT22;11139;51.284;7.226;2023-02-28T01:52:49;3.20;99.90
21950;DHT22;11139;51.284;7.226;2023-02-28T01:55:16;3.20;99.90
21950;DHT22;11139;51.284;7.226;2023-02-28T01:57:45;3.20;99.90
21950;DHT22;11139;51.284;7.226;2023-02-28T02:00:13;3.10;99.90
21950;DHT22;11139;51.284;7.226;2023-02-28T02:02:43;3.20;99.90
21950;DHT22;11139;51.284;7.226;2023-02-28T02:05:12;3.10;99.90
21950;DHT22;11139;51.284;7.226;2023-02-28T02:07:39;3.10;99.90
21950;DHT22;11139;51.284;7.226;2023-02-28T02:12:51;3.10;99.90
21950;DHT22;11139;51.284;7.226;2023-02-28T02:15:24;3.10;99.90
21950;DHT22;11139;51.284;7.226;2023-02-28T02:17:56;3.10;99.90
21950;DHT22;11139;51.284;7.226;2023-02-28T02:35:15;3.10;99.90
21950;DHT22;11139;51.284;7.226;2023-02-28T02:37:57;3.10;99.90
21950;DHT22;11139;51.284;7.226;2023-02-28T02:40:30;3.10;99.90
21950;DHT22;11139;51.284;7.226;2023-02-28T02:45:28;3.10;99.90
21950;DHT22;11139;51.284;7.226;2023-02-28T02:48:01;3.10;99.90
21950;DHT22;11139;51.284;7.226;2023-02-28T02:50:29;3.00;99.90
21950;DHT22;11139;51.284;7.226;2023-02-28T02:52:57;3.00;99.90
21950;DHT22;11139;51.284;7.226;2023-02-28T02:55:25;3.00;99.90
21950;DHT22;11139;51.284;7.226;2023-02-28T02:57:52;3.00;99.90
21950;DHT22;11139;51.284;7.226;2023-02-28T03:00:21;3.00;99.90
21950;DHT22;11139;51.284;7.226;2023-02-28T03:02:47;3.00;99.90
21950;DHT22;11139;51.284;7.226;2023-02-28T03:05:17;3.00;99.90
21950;DHT22;11139;51.284;7.226;2023-02-28T03:07:44;3.00;99.90
21950;DHT22;11139;51.284;7.226;2023-02-28T03:10:33;3.00;99.90
21950;DHT22;11139;51.284;7.226;2023-02-28T03:13:11;3.00;99.90
21950;DHT22;11139;51.284;7.226;2023-02-28T03:18:36;3.00;99.90
21950;DHT22;11139;51.284;7.226;2023-02-28T03:23:48;2.90;99.90
21950;DHT22;11139;51.284;7.226;2023-02-28T03:26:18;2.90;99.90
21950;DHT22;11139;51.284;7.226;2023-02-28T03:31:17;2.90;99.90
21950;DHT22;11139;51.284;7.226;2023-02-28T03:33:47;2.90;99.90
21950;DHT22;11139;51.284;7.226;2023-02-28T03:36:21;2.90;99.90
21950;DHT22;11139;51.284;7.226;2023-02-28T03:38:59;2.90;99.90
21950;DHT22;11139;51.284;7.226;2023-02-28T03:41:32;2.90;99.90
21950;DHT22;11139;51.284;7.226;2023-02-28T03:44:03;2.90;99.90
21950;DHT22;11139;51.284;7.226;2023-02-28T03:46:31;2.90;99.90
21950;DHT22;11139;51.284;7.226;2023-02-28T03:49:00;2.90;99.90
21950;DHT22;11139;51.284;7.226;2023-02-28T03:51:27;2.90;99.90
21950;DHT22;11139;51.284;7.226;2023-02-28T03:53:54;2.90;99.90
21950;DHT22;11139;51.284;7.226;2023-02-28T03:56:24;2.80;99.90
21950;DHT22;11139;51.284;7.226;2023-02-28T04:01:21;2.90;99.90
21950;DHT22;11139;51.284;7.226;2023-02-28T04:03:49;2.90;99.90
21950;DHT22;11139;51.284;7.226;2023-02-28T04:06:15;2.80;99.90
21950;DHT22;11139;51.284;7.226;2023-02-28T04:08:41;2.80;99.90
21950;DHT22;11139;51.284;7.226;2023-02-28T04:11:11;2.80;99.90
21950;DHT22;11139;51.284;7.226;2023-02-28T04:13:38;2.80;99.90
21950;DHT22;11139;51.284;7.226;2023-02-28T04:16:07;2.80;99.90
21950;DHT22;11139;51.284;7.226;2023-02-28T04:18:38;2.80;99.90
21950;DHT22;11139;51.284;7.226;2023-02-28T04:21:03;2.80;99.90
21950;DHT22;11139;51.284;7.226;2023-02-28T04:23:31;2.80;99.90
21950;DHT22;11139;51.284;7.226;2023-02-28T04:25:56;2.80;99.90
21950;DHT22;11139;51.284;7.226;2023-02-28T04:28:22;2.80;99.90
21950;DHT22;11139;51.284;7.226;2023-02-28T04:30:47;2.80;99.90
21950;DHT22;11139;51.284;7.226;2023-02-28T04:33:13;2.70;99.90
21950;DHT22;11139;51.284;7.226;2023-02-28T04:35:38;2.80;99.90
21950;DHT22;11139;51.284;7.226;2023-02-28T04:38:04;2.70;99.90
21950;DHT22;11139;51.284;7.226;2023-02-28T04:40:29;2.80;99.90
21950;DHT22;11139;51.284;7.226;2023-02-28T04:42:55;2.80;99.90
21950;DHT22;11139;51.284;7.226;2023-02-28T04:45:20;2.70;99.90
21950;DHT22;11139;51.284;7.226;2023-02-28T04:47:46;2.80;99.90
21950;DHT22;11139;51.284;7.226;2023-02-28T04:50:11;2.80;99.90
21950;DHT22;11139;51.284;7.226;2023-02-28T04:52:37;2.80;99.90
21950;DHT22;11139;51.284;7.226;2023-02-28T04:55:02;2.80;99.90
21950;DHT22;11139;51.284;7.226;2023-02-28T04:57:28;2.70;99.90
21950;DHT22;11139;51.284;7.226;2023-02-28T04:59:53;2.70;99.90
21950;DHT22;11139;51.284;7.226;2023-02-28T05:02:19;2.70;99.90
21950;DHT22;11139;51.284;7.226;2023-02-28T05:04:46;2.70;99.90
21950;DHT22;11139;51.284;7.226;2023-02-28T05:07:11;2.70;99.90
21950;DHT22;11139;51.284;7.226;2023-02-28T05:09:37;2.70;99.90
21950;DHT22;11139;51.284;7.226;2023-02-28T05:12:02;2.70;99.90
21950;DHT22;11139;51.284;7.226;2023-02-28T05:14:28;2.70;99.90
21950;DHT22;11139;51.284;7.226;2023-02-28T05:16:53;2.70;99.90
21950;DHT22;11139;51.284;7.226;2023-02-28T05:19:19;2.70;99.90
21950;DHT22;11139;51.284;7.226;2023-02-28T05:21:50;2.70;99.90
21950;DHT22;11139;51.284;7.226;2023-02-28T05:24:16;2.70;99.90
21950;DHT22;11139;51.284;7.226;2023-02-28T05:26:48;2.70;99.90
21950;DHT22;11139;51.284;7.226;2023-02-28T05:29:13;2.70;99.90
21950;DHT22;11139;51.284;7.226;2023-02-28T05:31:39;2.70;99.90
21950;DHT22;11139;51.284;7.226;2023-02-28T05:34:04;2.70;99.90
21950;DHT22;11139;51.284;7.226;2023-02-28T05:36:30;2.70;99.90
21950;DHT22;11139;51.284;7.226;2023-02-28T05:38:55;2.70;99.90
21950;DHT22;11139;51.284;7.226;2023-02-28T05:41:21;2.70;99.90
21950;DHT22;11139;51.284;7.226;2023-02-28T05:43:47;2.70;99.90
21950;DHT22;11139;51.284;7.226;2023-02-28T05:46:12;2.70;99.90
21950;DHT22;11139;51.284;7.226;2023-02-28T05:48:38;2.70;99.90
21950;DHT22;11139;51.284;7.226;2023-02-28T05:51:04;2.70;99.90
21950;DHT22;11139;51.284;7.226;2023-02-28T05:53:30;2.60;99.90
21950;DHT22;11139;51.284;7.226;2023-02-28T05:55:56;2.60;99.90
21950;DHT22;11139;51.284;7.226;2023-02-28T05:58:22;2.60;99.90
21950;DHT22;11139;51.284;7.226;2023-02-28T06:00:47;2.60;99.90
21950;DHT22;11139;51.284;7.226;2023-02-28T06:03:13;2.60;99.90
21950;DHT22;11139;51.284;7.226;2023-02-28T06:05:38;2.60;99.90
21950;DHT22;11139;51.284;7.226;2023-02-28T06:08:04;2.60;99.90
21950;DHT22;11139;51.284;7.226;2023-02-28T06:10:32;2.60;99.90
21950;DHT22;11139;51.284;7.226;2023-02-28T06:12:59;2.60;99.90
21950;DHT22;11139;51.284;7.226;2023-02-28T06:15:25;2.60;99.90
21950;DHT22;11139;51.284;7.226;2023-02-28T06:17:50;2.60;99.90
21950;DHT22;11139;51.284;7.226;2023-02-28T06:20:17;2.60;99.90
21950;DHT22;11139;51.284;7.226;2023-02-28T06:22:43;2.60;99.90
21950;DHT22;11139;51.284;7.226;2023-02-28T06:25:09;2.60;99.90
21950;DHT22;11139;51.284;7.226;2023-02-28T06:27:34;2.60;99.90
21950;DHT22;11139;51.284;7.226;2023-02-28T06:30:00;2.60;99.90
21950;DHT22;11139;51.284;7.226;2023-02-28T06:32:25;2.60;99.90
21950;DHT22;11139;51.284;7.226;2023-02-28T06:34:51;2.50;99.90
21950;DHT22;11139;51.284;7.226;2023-02-28T06:37:17;2.50;99.90
21950;DHT22;11139;51.284;7.226;2023-02-28T06:39:42;2.50;99.90
21950;DHT22;11139;51.284;7.226;2023-02-28T06:42:08;2.50;99.90
21950;DHT22;11139;51.284;7.226;2023-02-28T06:44:33;2.50;99.90
21950;DHT22;11139;51.284;7.226;2023-02-28T06:47:04;2.50;99.90
21950;DHT22;11139;51.284;7.226;2023-02-28T06:49:30;2.50;99.90
21950;DHT22;11139;51.284;7.226;2023-02-28T06:51:55;2.50;99.90
21950;DHT22;11139;51.284;7.226;2023-02-28T06:54:21;2.50;99.90
21950;DHT22;11139;51.284;7.226;2023-02-28T06:56:46;2.50;99.90
21950;DHT22;11139;51.284;7.226;2023-02-28T06:59:12;2.50;99.90
21950;DHT22;11139;51.284;7.226;2023-02-28T07:01:38;2.50;99.90
21950;DHT22;11139;51.284;7.226;2023-02-28T07:04:04;2.50;99.90
21950;DHT22;11139;51.284;7.226;2023-02-28T07:06:31;2.50;99.90
21950;DHT22;11139;51.284;7.226;2023-02-28T07:08:56;2.50;99.90
21950;DHT22;11139;51.284;7.226;2023-02-28T07:11:24;2.50;99.90
21950;DHT22;11139;51.284;7.226;2023-02-28T07:13:51;2.50;99.90
21950;DHT22;11139;51.284;7.226;2023-02-28T07:16:17;2.50;99.90
21950;DHT22;11139;51.284;7.226;2023-02-28T07:18:42;2.50;99.90
21950;DHT22;11139;51.284;7.226;2023-02-28T07:21:08;2.50;99.90
21950;DHT22;11139;51.284;7.226;2023-02-28T07:23:34;2.40;99.90
21950;DHT22;11139;51.284;7.226;2023-02-28T07:26:00;2.50;99.90
21950;DHT22;11139;51.284;7.226;2023-02-28T07:28:26;2.40;99.90
21950;DHT22;11139;51.284;7.226;2023-02-28T07:30:51;2.40;99.90
21950;DHT22;11139;51.284;7.226;2023-02-28T07:33:17;2.40;99.90
21950;DHT22;11139;51.284;7.226;2023-02-28T07:35:43;2.40;99.90
21950;DHT22;11139;51.284;7.226;2023-02-28T07:38:08;2.40;99.90
21950;DHT22;11139;51.284;7.226;2023-02-28T07:40:34;2.40;99.90
21950;DHT22;11139;51.284;7.226;2023-02-28T07:43:00;2.40;99.90
21950;DHT22;11139;51.284;7.226;2023-02-28T07:45:26;2.40;99.90
21950;DHT22;11139;51.284;7.226;2023-02-28T07:47:52;2.40;99.90
21950;DHT22;11139;51.284;7.226;2023-02-28T07:50:18;2.40;99.90
21950;DHT22;11139;51.284;7.226;2023-02-28T07:52:43;2.40;99.90
21950;DHT22;11139;51.284;7.226;2023-02-28T07:55:09;2.40;99.90
21950;DHT22;11139;51.284;7.226;2023-02-28T07:57:35;2.30;99.90
21950;DHT22;11139;51.284;7.226;2023-02-28T08:00:01;2.40;99.90
21950;DHT22;11139;51.284;7.226;2023-02-28T08:02:26;2.40;99.90
21950;DHT22;11139;51.284;7.226;2023-02-28T08:04:52;2.40;99.90
21950;DHT22;11139;51.284;7.226;2023-02-28T08:07:17;2.40;99.90
21950;DHT22;11139;51.284;7.226;2023-02-28T08:09:43;2.40;99.90
21950;DHT22;11139;51.284;7.226;2023-02-28T08:12:09;2.30;99.90
21950;DHT22;11139;51.284;7.226;2023-02-28T08:14:35;2.30;99.90
21950;DHT22;11139;51.284;7.226;2023-02-28T08:17:01;2.30;99.90
21950;DHT22;11139;51.284;7.226;2023-02-28T08:19:27;2.40;99.90
21950;DHT22;11139;51.284;7.226;2023-02-28T08:21:52;2.30;99.90
21950;DHT22;11139;51.284;7.226;2023-02-28T08:24:18;2.20;99.90
21950;DHT22;11139;51.284;7.226;2023-02-28T08:26:43;2.20;99.90
21950;DHT22;11139;51.284;7.226;2023-02-28T08:29:09;2.20;99.90
21950;DHT22;11139;51.284;7.226;2023-02-28T08:31:34;2.20;99.90
21950;DHT22;11139;51.284;7.226;2023-02-28T08:34:11;2.20;99.90
21950;DHT22;11139;51.284;7.226;2023-02-28T08:36:39;2.20;99.90
21950;DHT22;11139;51.284;7.226;2023-02-28T08:39:05;2.20;99.90
21950;DHT22;11139;51.284;7.226;2023-02-28T08:41:30;2.20;99.90
21950;DHT22;11139;51.284;7.226;2023-02-28T08:43:56;2.20;99.90
21950;DHT22;11139;51.284;7.226;2023-02-28T08:46:22;2.20;99.90
21950;DHT22;11139;51.284;7.226;2023-02-28T08:48:51;2.20;99.90
21950;DHT22;11139;51.284;7.226;2023-02-28T08:51:16;2.20;99.90
21950;DHT22;11139;51.284;7.226;2023-02-28T08:53:44;2.20;99.90
21950;DHT22;11139;51.284;7.226;2023-02-28T08:56:11;2.20;99.90
21950;DHT22;11139;51.284;7.226;2023-02-28T08:58:36;2.10;99.90
21950;DHT22;11139;51.284;7.226;2023-02-28T09:01:13;2.20;99.90
21950;DHT22;11139;51.284;7.226;2023-02-28T09:03:39;2.20;99.90
21950;DHT22;11139;51.284;7.226;2023-02-28T09:06:06;2.10;99.90
21950;DHT22;11139;51.284;7.226;2023-02-28T09:08:31;2.10;99.90
21950;DHT22;11139;51.284;7.226;2023-02-28T09:10:57;2.10;99.90
21950;DHT22;11139;51.284;7.226;2023-02-28T09:13:24;2.20;99.90
21950;DHT22;11139;51.284;7.226;2023-02-28T09:15:49;2.10;99.90
21950;DHT22;11139;51.284;7.226;2023-02-28T09:18:15;2.10;99.90
21950;DHT22;11139;51.284;7.226;2023-02-28T09:20:41;2.10;99.90
21950;DHT22;11139;51.284;7.226;2023-02-28T09:23:07;2.10;99.90
21950;DHT22;11139;51.284;7.226;2023-02-28T09:25:33;2.10;99.90
21950;DHT22;11139;51.284;7.226;2023-02-28T09:27:59;2.10;99.90
21950;DHT22;11139;51.284;7.226;2023-02-28T09:30:25;2.10;99.90
21950;DHT22;11139;51.284;7.226;2023-02-28T09:32:50;2.10;99.90
21950;DHT22;11139;51.284;7.226;2023-02-28T09:35:17;2.10;99.90
21950;DHT22;11139;51.284;7.226;2023-02-28T09:37:43;2.10;99.90
21950;DHT22;11139;51.284;7.226;2023-02-28T09:40:09;2.10;99.90
21950;DHT22;11139;51.284;7.226;2023-02-28T09:42:35;2.10;99.90
21950;DHT22;11139;51.284;7.226;2023-02-28T09:45:00;2.10;99.90
21950;DHT22;11139;51.284;7.226;2023-02-28T09:47:30;2.20;99.90
21950;DHT22;11139;51.284;7.226;2023-02-28T09:49:56;2.20;99.90
21950;DHT22;11139;51.284;7.226;2023-02-28T09:52:25;2.20;99.90
21950;DHT22;11139;51.284;7.226;2023-02-28T09:54:53;2.20;99.90
21950;DHT22;11139;51.284;7.226;2023-02-28T10:10:06;2.20;99.90
21950;DHT22;11139;51.284;7.226;2023-02-28T10:12:37;2.10;99.90
21950;DHT22;11139;51.284;7.226;2023-02-28T10:15:07;2.20;99.90
21950;DHT22;11139;51.284;7.226;2023-02-28T10:17:38;2.10;99.90
21950;DHT22;11139;51.284;7.226;2023-02-28T10:20:05;2.10;99.90
21950;DHT22;11139;51.284;7.226;2023-02-28T10:22:52;2.10;99.90
21950;DHT22;11139;51.284;7.226;2023-02-28T10:25:20;2.10;99.90
21950;DHT22;11139;51.284;7.226;2023-02-28T10:27:46;2.10;99.90
21950;DHT22;11139;51.284;7.226;2023-02-28T10:30:12;2.10;99.90
21950;DHT22;11139;51.284;7.226;2023-02-28T10:32:39;2.20;99.90
21950;DHT22;11139;51.284;7.226;2023-02-28T10:37:40;2.10;99.90
21950;DHT22;11139;51.284;7.226;2023-02-28T10:40:24;2.20;99.90
21950;DHT22;11139;51.284;7.226;2023-02-28T10:42:58;2.20;99.90
21950;DHT22;11139;51.284;7.226;2023-02-28T10:45:24;2.10;99.90
21950;DHT22;11139;51.284;7.226;2023-02-28T10:50:30;2.10;99.90
21950;DHT22;11139;51.284;7.226;2023-02-28T10:55:35;2.10;99.90
21950;DHT22;11139;51.284;7.226;2023-02-28T10:58:00;2.40;99.90
21950;DHT22;11139;51.284;7.226;2023-02-28T11:00:26;2.70;99.90
21950;DHT22;11139;51.284;7.226;2023-02-28T11:02:56;2.90;99.90
21950;DHT22;11139;51.284;7.226;2023-02-28T11:05:35;3.10;99.90
21950;DHT22;11139;51.284;7.226;2023-02-28T11:08:12;3.10;99.90
21950;DHT22;11139;51.284;7.226;2023-02-28T11:10:39;3.10;99.90
21950;DHT22;11139;51.284;7.226;2023-02-28T11:13:05;3.10;99.90
21950;DHT22;11139;51.284;7.226;2023-02-28T11:15:31;3.20;99.90
21950;DHT22;11139;51.284;7.226;2023-02-28T11:20:29;3.10;99.90
21950;DHT22;11139;51.284;7.226;2023-02-28T11:22:55;3.20;99.90
21950;DHT22;11139;51.284;7.226;2023-02-28T11:25:26;3.00;99.90
21950;DHT22;11139;51.284;7.226;2023-02-28T11:27:53;2.90;99.90
21950;DHT22;11139;51.284;7.226;2023-02-28T11:30:40;2.80;99.90
21950;DHT22;11139;51.284;7.226;2023-02-28T11:35:49;3.30;99.90
21950;DHT22;11139;51.284;7.226;2023-02-28T11:38:15;3.40;99.90
21950;DHT22;11139;51.284;7.226;2023-02-28T11:48:20;3.30;99.90
21950;DHT22;11139;51.284;7.226;2023-02-28T11:55:53;3.30;99.90
21950;DHT22;11139;51.284;7.226;2023-02-28T12:06:00;3.30;99.90
21950;DHT22;11139;51.284;7.226;2023-02-28T12:19:07;3.30;99.90
21950;DHT22;11139;51.284;7.226;2023-02-28T12:21:48;3.20;99.90
21950;DHT22;11139;51.284;7.226;2023-02-28T12:24:40;3.30;99.90
21950;DHT22;11139;51.284;7.226;2023-02-28T12:27:05;3.30;99.90
21950;DHT22;11139;51.284;7.226;2023-02-28T12:29:34;3.30;99.90
21950;DHT22;11139;51.284;7.226;2023-02-28T12:32:21;3.20;99.90
21950;DHT22;11139;51.284;7.226;2023-02-28T12:34:52;3.30;99.90
21950;DHT22;11139;51.284;7.226;2023-02-28T12:37:22;3.20;99.90
21950;DHT22;11139;51.284;7.226;2023-02-28T12:39:51;3.30;99.90
21950;DHT22;11139;51.284;7.226;2023-02-28T12:42:24;3.30;99.90
21950;DHT22;11139;51.284;7.226;2023-02-28T12:44:52;3.30;99.90
21950;DHT22;11139;51.284;7.226;2023-02-28T12:47:19;3.30;99.90
21950;DHT22;11139;51.284;7.226;2023-02-28T12:49:46;3.30;99.90
21950;DHT22;11139;51.284;7.226;2023-02-28T12:52:13;3.30;99.90
21950;DHT22;11139;51.284;7.226;2023-02-28T12:59:54;3.30;99.90
21950;DHT22;11139;51.284;7.226;2023-02-28T13:09:57;3.30;99.90
21950;DHT22;11139;51.284;7.226;2023-02-28T13:12:23;3.30;99.90
21950;DHT22;11139;51.284;7.226;2023-02-28T13:14:49;3.30;99.90
21950;DHT22;11139;51.284;7.226;2023-02-28T13:17:21;3.30;99.90
21950;DHT22;11139;51.284;7.226;2023-02-28T13:22:41;3.30;99.90
21950;DHT22;11139;51.284;7.226;2023-02-28T13:25:49;3.30;99.90
21950;DHT22;11139;51.284;7.226;2023-02-28T13:27:51;3.30;99.90
21950;DHT22;11139;51.284;7.226;2023-02-28T13:36:01;3.30;99.90
21950;DHT22;11139;51.284;7.226;2023-02-28T13:38:41;3.40;99.90
21950;DHT22;11139;51.284;7.226;2023-02-28T13:46:26;3.40;99.90
21950;DHT22;11139;51.284;7.226;2023-02-28T13:48:52;3.40;99.90
21950;DHT22;11139;51.284;7.226;2023-02-28T13:51:28;3.30;99.90
21950;DHT22;11139;51.284;7.226;2023-02-28T13:54:02;3.30;99.90
21950;DHT22;11139;51.284;7.226;2023-02-28T13:57:17;3.40;99.90
21950;DHT22;11139;51.284;7.226;2023-02-28T13:59:33;3.40;99.90
21950;DHT22;11139;51.284;7.226;2023-02-28T14:07:03;3.40;99.90
21950;DHT22;11139;51.284;7.226;2023-02-28T14:09:30;3.40;99.90
21950;DHT22;11139;51.284;7.226;2023-02-28T14:11:57;3.40;99.90
21950;DHT22;11139;51.284;7.226;2023-02-28T14:14:56;3.40;99.90
21950;DHT22;11139;51.284;7.226;2023-02-28T14:17:15;3.40;99.90
21950;DHT22;11139;51.284;7.226;2023-02-28T14:19:43;3.40;99.90
21950;DHT22;11139;51.284;7.226;2023-02-28T14:37:53;3.40;99.90
21950;DHT22;11139;51.284;7.226;2023-02-28T14:40:21;3.30;99.90
21950;DHT22;11139;51.284;7.226;2023-02-28T14:42:54;3.20;99.90
21950;DHT22;11139;51.284;7.226;2023-02-28T14:45:20;3.20;99.90
21950;DHT22;11139;51.284;7.226;2023-02-28T14:47:47;3.20;99.90
21950;DHT22;11139;51.284;7.226;2023-02-28T14:50:18;3.10;99.90
21950;DHT22;11139;51.284;7.226;2023-02-28T14:52:44;3.10;99.90
21950;DHT22;11139;51.284;7.226;2023-02-28T14:55:13;3.10;99.90
21950;DHT22;11139;51.284;7.226;2023-02-28T15:02:46;3.10;99.90
21950;DHT22;11139;51.284;7.226;2023-02-28T15:07:46;3.10;99.90
21950;DHT22;11139;51.284;7.226;2023-02-28T15:10:16;3.10;99.90
21950;DHT22;11139;51.284;7.226;2023-02-28T15:13:26;3.10;99.90
21950;DHT22;11139;51.284;7.226;2023-02-28T15:15:40;3.10;99.90
21950;DHT22;11139;51.284;7.226;2023-02-28T15:18:07;3.10;99.90
21950;DHT22;11139;51.284;7.226;2023-02-28T15:20:38;3.10;99.90
21950;DHT22;11139;51.284;7.226;2023-02-28T15:23:04;3.10;99.90
21950;DHT22;11139;51.284;7.226;2023-02-28T15:25:29;3.10;99.90
21950;DHT22;11139;51.284;7.226;2023-02-28T15:27:56;3.10;99.90
21950;DHT22;11139;51.284;7.226;2023-02-28T15:33:05;3.10;99.90
21950;DHT22;11139;51.284;7.226;2023-02-28T15:35:33;3.00;99.90
21950;DHT22;11139;51.284;7.226;2023-02-28T15:40:38;3.10;99.90
21950;DHT22;11139;51.284;7.226;2023-02-28T15:43:07;3.20;99.90
21950;DHT22;11139;51.284;7.226;2023-02-28T15:45:37;3.30;99.90
21950;DHT22;11139;51.284;7.226;2023-02-28T15:48:04;3.50;99.90
21950;DHT22;11139;51.284;7.226;2023-02-28T15:50:30;3.60;99.90
21950;DHT22;11139;51.284;7.226;2023-02-28T15:52:56;3.70;99.90
21950;DHT22;11139;51.284;7.226;2023-02-28T15:55:23;3.80;99.90
21950;DHT22;11139;51.284;7.226;2023-02-28T15:57:50;4.00;99.90
21950;DHT22;11139;51.284;7.226;2023-02-28T16:00:19;4.40;99.90
21950;DHT22;11139;51.284;7.226;2023-02-28T16:02:45;4.30;99.90
21950;DHT22;11139;51.284;7.226;2023-02-28T16:07:36;4.20;99.90
21950;DHT22;11139;51.284;7.226;2023-02-28T16:10:02;4.20;99.90
21950;DHT22;11139;51.284;7.226;2023-02-28T16:12:28;4.20;99.90
21950;DHT22;11139;51.284;7.226;2023-02-28T16:14:55;4.20;99.90
21950;DHT22;11139;51.284;7.226;2023-02-28T16:17:24;4.10;99.90
21950;DHT22;11139;51.284;7.226;2023-02-28T16:19:50;4.20;99.90
21950;DHT22;11139;51.284;7.226;2023-02-28T16:22:16;4.20;99.90
21950;DHT22;11139;51.284;7.226;2023-02-28T16:24:42;4.20;99.90
21950;DHT22;11139;51.284;7.226;2023-02-28T16:27:10;4.20;99.90
21950;DHT22;11139;51.284;7.226;2023-02-28T16:29:39;4.20;99.90
21950;DHT22;11139;51.284;7.226;2023-02-28T16:32:05;4.20;99.90
21950;DHT22;11139;51.284;7.226;2023-02-28T16:34:31;4.20;99.90
21950;DHT22;11139;51.284;7.226;2023-02-28T16:36:56;4.10;99.90
21950;DHT22;11139;51.284;7.226;2023-02-28T16:39:22;4.20;99.90
21950;DHT22;11139;51.284;7.226;2023-02-28T16:41:48;4.10;99.90
21950;DHT22;11139;51.284;7.226;2023-02-28T16:44:21;4.20;99.90
21950;DHT22;11139;51.284;7.226;2023-02-28T16:46:49;4.10;99.90
21950;DHT22;11139;51.284;7.226;2023-02-28T16:49:14;4.20;99.90
21950;DHT22;11139;51.284;7.226;2023-02-28T16:51:39;4.10;99.90
21950;DHT22;11139;51.284;7.226;2023-02-28T16:54:05;4.10;99.90
21950;DHT22;11139;51.284;7.226;2023-02-28T16:56:30;4.10;99.90
21950;DHT22;11139;51.284;7.226;2023-02-28T16:58:58;4.40;99.90
21950;DHT22;11139;51.284;7.226;2023-02-28T17:01:25;4.50;99.90
21950;DHT22;11139;51.284;7.226;2023-02-28T17:03:52;4.40;99.90
21950;DHT22;11139;51.284;7.226;2023-02-28T17:06:25;4.30;99.90
21950;DHT22;11139;51.284;7.226;2023-02-28T17:08:51;4.20;99.90
21950;DHT22;11139;51.284;7.226;2023-02-28T17:11:17;4.20;99.90
21950;DHT22;11139;51.284;7.226;2023-02-28T17:13:43;4.10;99.90
21950;DHT22;11139;51.284;7.226;2023-02-28T17:16:13;4.00;99.90
21950;DHT22;11139;51.284;7.226;2023-02-28T17:18:40;4.00;99.90
21950;DHT22;11139;51.284;7.226;2023-02-28T17:21:09;4.00;99.90
21950;DHT22;11139;51.284;7.226;2023-02-28T17:23:35;4.00;99.90
21950;DHT22;11139;51.284;7.226;2023-02-28T17:26:00;4.00;99.90
21950;DHT22;11139;51.284;7.226;2023-02-28T17:28:26;4.00;99.90
21950;DHT22;11139;51.284;7.226;2023-02-28T17:30:51;4.00;99.90
21950;DHT22;11139;51.284;7.226;2023-02-28T17:33:17;4.00;99.90
21950;DHT22;11139;51.284;7.226;2023-02-28T17:35:42;3.90;99.90
21950;DHT22;11139;51.284;7.226;2023-02-28T17:38:12;4.00;99.90
21950;DHT22;11139;51.284;7.226;2023-02-28T17:40:39;4.00;99.90
21950;DHT22;11139;51.284;7.226;2023-02-28T17:43:04;4.00;99.90
21950;DHT22;11139;51.284;7.226;2023-02-28T17:45:30;4.00;99.90
21950;DHT22;11139;51.284;7.226;2023-02-28T17:47:55;4.00;99.90
21950;DHT22;11139;51.284;7.226;2023-02-28T17:50:21;4.00;99.90
21950;DHT22;11139;51.284;7.226;2023-02-28T17:52:47;4.10;99.90
21950;DHT22;11139;51.284;7.226;2023-02-28T17:55:13;4.10;99.90
21950;DHT22;11139;51.284;7.226;2023-02-28T17:57:39;4.10;99.90
21950;DHT22;11139;51.284;7.226;2023-02-28T18:00:04;4.10;99.90
21950;DHT22;11139;51.284;7.226;2023-02-28T18:02:33;4.10;99.90
21950;DHT22;11139;51.284;7.226;2023-02-28T18:04:58;4.10;99.90
21950;DHT22;11139;51.284;7.226;2023-02-28T18:07:24;4.10;99.90
21950;DHT22;11139;51.284;7.226;2023-02-28T18:09:50;4.10;99.90
21950;DHT22;11139;51.284;7.226;2023-02-28T18:12:15;4.10;99.90
21950;DHT22;11139;51.284;7.226;2023-02-28T18:14:41;4.10;99.90
21950;DHT22;11139;51.284;7.226;2023-02-28T18:17:09;4.10;99.90